Airfield :
LOGIN :

Register | Disclaimer

   EN    FR    IT 

 










Legend :    VFR   Marginal VFR   IFR   Intensive IFR   Very Intensive IFR
Visi :
Ceiling :
>= 8 km
>= 3000ft
5 to 8 km
1000 to 3000 ft
1500m to 5 km
500 to 1000 ft
800 to 1500m
200 to 500 ft
< 800m
< 200 ft
Symbols :   Thunderstorms  Fog  Heavy snow  Heavy precipitations  Wind > 20 kt
SIGMETs :     Misc.  Thunderstorms  Icing  Turbulence  Mountain Waves  Volcanic Ashes







- Airport Elevation : 1416 ft
- IATA code : ZRH


LSZH - Zurich

CURRENT METAR :
  • 171120Z VRB02KT CAVOK 09/00 Q1027 NOSIG

EXPIRED METARs :
  • 171050Z 28003KT 250V320 CAVOK 07/00 Q1027 NOSIG
  • 171020Z VRB03KT CAVOK 05/M00 Q1027 NOSIG
  • 170950Z VRB02KT 8000 NSC 04/00 Q1027 NOSIG
  • 170920Z VRB02KT 8000 NSC 03/M00 Q1027 NOSIG
  • 170850Z VRB02KT 6000 NSC 01/M01 Q1027 NOSIG

TAF TAF LSZH
Valid from the 17 at 12:00 until the 18 at 18:00 UTC


171125Z 1712/1818 VRB03KT CAVOK TX15/1715Z TNM04/1805Z TX13/1815Z
BECMG 1802/1805 7000 NSC
PROB40 1805/1808 4000 MIFG
BECMG 1808/1810 CAVOK
ATIS : +41 43 816 2295 (DEP) +41 43 816 2294 (ARR)
No reported NOTAMs for that airfield.



MET'MAP, your aeronautical weather chart ! - Copyright ORBIFLY December 2007 - Disclaimer

ORBIFLY MET'MAP TEAM :

Programming & Development : Alexandra Zaïnal
Concept & Development : Baudouin d'Aumeries
Co-Development & Prog : Marc-Olivier Méhu
Technical & hardware support : Manuel Goepfert

Contact : metmap@orbifly.com




SOURCES & CREDITS :

   NOAA